createdAt,value
2017-11-24T00:01:40.808Z,4.97
2017-11-24T00:04:08.477Z,5.30
2017-11-24T00:06:36.056Z,5.00
2017-11-24T00:09:04.416Z,6.20
2017-11-24T00:11:32.085Z,5.13
2017-11-24T00:13:59.750Z,5.63
2017-11-24T00:16:27.320Z,4.63
2017-11-24T00:18:55.661Z,6.07
2017-11-24T00:21:24.057Z,4.77
2017-11-24T00:23:51.628Z,5.78
2017-11-24T00:26:19.216Z,5.57
2017-11-24T00:28:46.788Z,5.60
2017-11-24T00:31:14.377Z,5.80
2017-11-24T00:33:41.949Z,6.70
2017-11-24T00:36:09.542Z,5.53
2017-11-24T00:38:38.797Z,5.50
2017-11-24T00:41:06.484Z,5.43
2017-11-24T00:43:34.055Z,5.33
2017-11-24T00:46:01.626Z,5.50
2017-11-24T00:48:29.985Z,5.23
2017-11-24T00:50:57.560Z,5.53
2017-11-24T00:53:25.912Z,5.10
2017-11-24T00:55:53.491Z,5.43
2017-11-24T00:58:21.093Z,5.57
2017-11-24T01:00:48.712Z,5.10
2017-11-24T01:03:16.309Z,4.70
2017-11-24T01:05:43.878Z,5.50
2017-11-24T01:08:11.451Z,5.30
2017-11-24T01:10:40.016Z,5.90
2017-11-24T01:13:07.584Z,5.70
2017-11-24T01:15:35.200Z,5.80
2017-11-24T01:18:02.759Z,5.57
2017-11-24T01:20:30.349Z,5.60
2017-11-24T01:22:58.710Z,6.27
2017-11-24T01:25:27.064Z,5.13
2017-11-24T01:27:54.624Z,5.75
2017-11-24T01:30:22.434Z,5.20
2017-11-24T01:32:50.765Z,6.23
2017-11-24T01:35:18.321Z,5.60
2017-11-24T01:37:46.009Z,6.20
2017-11-24T01:40:13.569Z,4.43
2017-11-24T01:42:41.160Z,4.53
2017-11-24T01:45:09.497Z,4.70
2017-11-24T01:47:38.009Z,4.67
2017-11-24T01:50:06.344Z,3.90
2017-11-24T01:52:33.930Z,4.10
2017-11-24T01:55:01.602Z,3.97
2017-11-24T01:57:29.197Z,4.40
2017-11-24T01:59:56.766Z,4.15
2017-11-24T02:02:24.380Z,4.07
2017-11-24T02:04:52.346Z,3.53
2017-11-24T02:07:21.425Z,3.00
2017-11-24T02:09:49.013Z,3.35
2017-11-24T02:12:16.585Z,3.20
2017-11-24T02:14:44.941Z,2.75
2017-11-24T02:17:12.876Z,2.83
2017-11-24T02:19:41.155Z,2.20
2017-11-24T02:22:08.733Z,3.00
2017-11-24T02:24:36.325Z,2.23
2017-11-24T02:27:04.696Z,2.53
2017-11-24T02:29:32.362Z,2.70
2017-11-24T02:31:59.945Z,2.50
2017-11-24T02:34:28.333Z,2.10
2017-11-24T02:36:56.048Z,2.87
2017-11-24T02:39:23.629Z,2.33
2017-11-24T02:41:51.226Z,3.22
2017-11-24T02:44:18.794Z,2.83
2017-11-24T02:46:46.446Z,2.30
2017-11-24T02:49:14.111Z,2.90
2017-11-24T02:51:41.752Z,2.97
2017-11-24T02:54:10.126Z,3.20
2017-11-24T02:56:39.847Z,3.00
2017-11-24T02:59:08.219Z,3.50
2017-11-24T03:01:36.624Z,3.20
2017-11-24T03:04:04.284Z,2.77
2017-11-24T03:06:31.914Z,2.50
2017-11-24T03:08:59.860Z,3.10
2017-11-24T03:11:27.625Z,3.13
2017-11-24T03:13:55.221Z,3.20
2017-11-24T03:16:23.681Z,3.40
2017-11-24T03:18:51.245Z,3.00
2017-11-24T03:21:19.720Z,3.27
2017-11-24T03:23:47.289Z,3.30
2017-11-24T03:26:16.577Z,3.50
2017-11-24T03:28:44.205Z,3.43
2017-11-24T03:31:11.774Z,3.30
2017-11-24T03:33:39.920Z,3.20
2017-11-24T03:36:07.481Z,3.10
2017-11-24T03:38:35.065Z,3.90
2017-11-24T03:41:02.678Z,3.70
2017-11-24T03:43:31.030Z,4.83
2017-11-24T03:45:58.591Z,5.27
2017-11-24T03:48:26.372Z,4.97
2017-11-24T03:50:54.033Z,5.75
2017-11-24T03:53:21.593Z,4.77
2017-11-24T03:55:49.185Z,5.20
2017-11-24T03:58:17.513Z,5.70
2017-11-24T04:00:45.262Z,5.80
2017-11-24T04:03:12.824Z,5.33
2017-11-24T04:05:42.062Z,5.30
2017-11-24T04:08:09.717Z,5.63
2017-11-24T04:10:37.381Z,4.57
2017-11-24T04:13:04.964Z,6.03
2017-11-24T04:15:33.289Z,5.87
2017-11-24T04:18:00.876Z,4.68
2017-11-24T04:20:28.450Z,4.30
2017-11-24T04:22:56.045Z,4.00
2017-11-24T04:25:23.668Z,4.23
2017-11-24T04:27:51.324Z,5.12
2017-11-24T04:30:18.925Z,5.23
2017-11-24T04:32:46.554Z,5.53
2017-11-24T04:35:14.118Z,5.63
2017-11-24T04:37:41.972Z,4.70
2017-11-24T04:40:10.300Z,4.80
2017-11-24T04:42:37.865Z,5.62
2017-11-24T04:45:05.481Z,5.07
2017-11-24T04:47:33.045Z,5.43
2017-11-24T04:50:00.638Z,5.70
2017-11-24T04:52:28.201Z,6.00
2017-11-24T04:54:55.785Z,5.40
2017-11-24T04:57:23.345Z,5.50
2017-11-24T04:59:50.956Z,5.40
2017-11-24T05:02:19.301Z,6.37
2017-11-24T05:04:46.910Z,5.40
2017-11-24T05:07:15.265Z,6.20
2017-11-24T05:09:43.759Z,5.00
2017-11-24T05:12:12.129Z,6.03
2017-11-24T05:14:39.700Z,6.17
2017-11-24T05:17:08.053Z,5.60
2017-11-24T05:19:35.609Z,5.50
2017-11-24T05:22:03.193Z,6.23
2017-11-24T05:24:30.753Z,5.80
2017-11-24T05:26:59.104Z,5.80
2017-11-24T05:29:26.661Z,5.57
2017-11-24T05:31:54.462Z,5.80
2017-11-24T05:34:22.021Z,5.67
2017-11-24T05:36:49.589Z,5.70
2017-11-24T05:39:17.949Z,6.03
2017-11-24T05:41:45.514Z,5.43
2017-11-24T05:44:13.109Z,6.07
2017-11-24T05:46:42.080Z,6.70
2017-11-24T05:49:10.433Z,5.57
2017-11-24T05:51:37.998Z,6.80
2017-11-24T05:54:05.619Z,5.93
2017-11-24T05:56:33.186Z,4.87
2017-11-24T05:59:00.758Z,6.62
2017-11-24T06:01:28.352Z,6.80
2017-11-24T06:03:55.921Z,6.73
2017-11-24T06:06:24.307Z,6.00
2017-11-24T06:08:52.649Z,5.72
2017-11-24T06:11:20.240Z,5.50
2017-11-24T06:13:47.852Z,6.78
2017-11-24T06:16:15.472Z,6.33
2017-11-24T06:18:43.935Z,7.10
2017-11-24T06:21:11.597Z,7.20
2017-11-24T06:23:39.185Z,5.13
2017-11-24T06:26:07.521Z,6.85
2017-11-24T06:28:35.489Z,6.23
2017-11-24T06:31:03.077Z,6.27
2017-11-24T06:33:30.665Z,6.07
2017-11-24T06:35:58.233Z,6.10
2017-11-24T06:38:25.801Z,5.63
2017-11-24T06:40:53.393Z,5.57
2017-11-24T06:43:20.957Z,5.80
2017-11-24T06:45:48.546Z,4.72
2017-11-24T06:48:16.884Z,5.40
2017-11-24T06:50:44.478Z,5.30
2017-11-24T06:53:12.041Z,5.30
2017-11-24T06:55:39.624Z,4.40
2017-11-24T06:58:07.949Z,5.50
2017-11-24T07:00:35.537Z,4.57
2017-11-24T07:03:03.110Z,4.50
2017-11-24T07:05:31.463Z,4.90
2017-11-24T07:07:59.057Z,6.30
2017-11-24T07:10:27.525Z,4.50
2017-11-24T07:12:55.090Z,4.90
2017-11-24T07:15:23.462Z,4.00
2017-11-24T07:17:51.837Z,5.10
2017-11-24T07:20:20.909Z,3.70
2017-11-24T07:22:48.501Z,3.73
2017-11-24T07:25:16.836Z,4.00
2017-11-24T07:27:44.428Z,4.47
2017-11-24T07:30:12.002Z,3.97
2017-11-24T07:32:39.588Z,4.30
2017-11-24T07:35:07.162Z,4.30
2017-11-24T07:37:34.773Z,3.50
2017-11-24T07:40:02.345Z,3.70
2017-11-24T07:42:30.676Z,3.87
2017-11-24T07:44:58.264Z,4.23
2017-11-24T07:47:25.830Z,3.97
2017-11-24T07:49:53.417Z,4.23
2017-11-24T07:52:22.061Z,3.10
2017-11-24T07:54:49.645Z,4.10
2017-11-24T07:57:17.209Z,3.73
2017-11-24T07:59:44.801Z,3.50
2017-11-24T08:02:12.375Z,3.27
2017-11-24T08:04:40.885Z,4.22
2017-11-24T08:07:08.457Z,4.47
2017-11-24T08:09:36.137Z,5.00
2017-11-24T08:12:03.710Z,3.62
2017-11-24T08:14:32.168Z,4.20
2017-11-24T08:16:59.737Z,3.67
2017-11-24T08:19:28.520Z,3.63
2017-11-24T08:21:56.088Z,3.47
2017-11-24T08:24:23.749Z,3.20
2017-11-24T08:26:51.341Z,2.80
2017-11-24T08:29:18.977Z,3.67
2017-11-24T08:31:47.336Z,3.70
2017-11-24T08:34:16.414Z,4.33
2017-11-24T08:36:44.005Z,3.70
2017-11-24T08:39:11.574Z,4.30
2017-11-24T08:41:39.166Z,3.37
2017-11-24T08:44:06.791Z,2.90
2017-11-24T08:49:39.777Z,3.00
2017-11-24T08:52:07.369Z,3.00
2017-11-24T08:54:35.706Z,3.53
2017-11-24T08:57:03.301Z,3.33
2017-11-24T08:59:30.867Z,3.90
2017-11-24T09:01:58.457Z,4.28
2017-11-24T09:04:26.020Z,3.07
2017-11-24T09:06:53.625Z,3.75
2017-11-24T09:09:21.309Z,3.90
2017-11-24T09:11:48.873Z,3.85
2017-11-24T09:14:16.461Z,3.40
2017-11-24T09:16:44.020Z,2.90
2017-11-24T09:19:11.615Z,3.10
2017-11-24T09:21:39.181Z,3.53
2017-11-24T09:24:06.781Z,3.00
2017-11-24T09:26:35.115Z,2.37
2017-11-24T09:29:02.813Z,3.60
2017-11-24T09:31:30.381Z,3.50
2017-11-24T09:33:57.993Z,4.30
2017-11-24T09:36:25.554Z,3.17
2017-11-24T09:38:53.125Z,2.92
2017-11-24T09:41:20.715Z,4.10
2017-11-24T09:43:48.282Z,3.65
2017-11-24T09:46:15.910Z,3.10
2017-11-24T09:48:43.806Z,4.37
2017-11-24T09:51:11.452Z,3.70
2017-11-24T09:53:39.009Z,3.85
2017-11-24T09:56:06.582Z,3.20
2017-11-24T09:58:34.441Z,4.03
2017-11-24T10:01:02.005Z,4.00
2017-11-24T10:03:29.683Z,4.80
2017-11-24T10:05:57.529Z,3.75
2017-11-24T10:08:25.208Z,4.00
2017-11-24T10:10:52.774Z,5.03
2017-11-24T10:13:20.368Z,3.80
2017-11-24T10:15:47.949Z,4.30
2017-11-24T10:18:15.554Z,3.70
2017-11-24T10:20:49.581Z,4.77
2017-11-24T10:23:17.937Z,3.37
2017-11-24T10:25:45.513Z,4.27
2017-11-24T10:28:13.122Z,4.60
2017-11-24T10:30:41.877Z,5.12
2017-11-24T10:33:09.449Z,4.73
2017-11-24T10:35:37.805Z,4.30
2017-11-24T10:38:05.369Z,3.70
2017-11-24T10:40:33.724Z,4.00
2017-11-24T10:43:01.284Z,4.30
2017-11-24T10:45:28.869Z,3.10
2017-11-24T10:47:57.209Z,4.18
2017-11-24T10:50:24.805Z,5.30
2017-11-24T10:52:52.368Z,4.37
2017-11-24T10:55:20.937Z,4.10
2017-11-24T10:57:48.497Z,3.85
2017-11-24T11:00:16.073Z,4.40
2017-11-24T11:02:43.757Z,4.50
2017-11-24T11:05:11.324Z,3.87
2017-11-24T11:07:38.913Z,3.10
2017-11-24T11:10:06.478Z,4.03
2017-11-24T11:12:34.066Z,4.23
2017-11-24T11:15:01.637Z,3.60
2017-11-24T11:17:29.221Z,3.60
2017-11-24T11:19:56.793Z,4.68
2017-11-24T11:22:24.414Z,4.10
2017-11-24T11:24:51.982Z,3.00
2017-11-24T11:27:20.312Z,4.30
2017-11-24T11:29:47.900Z,2.80
2017-11-24T11:32:15.460Z,3.90
2017-11-24T11:34:44.172Z,3.95
2017-11-24T11:37:12.501Z,3.77
2017-11-24T11:39:40.985Z,4.30
2017-11-24T11:42:08.573Z,4.37
2017-11-24T11:44:37.642Z,3.30
2017-11-24T11:47:05.229Z,4.50
2017-11-24T11:49:33.569Z,4.17
2017-11-24T11:52:01.182Z,4.17
2017-11-24T11:54:29.514Z,3.70
2017-11-24T11:56:57.081Z,4.23
2017-11-24T11:59:24.680Z,3.40
2017-11-24T12:01:52.249Z,3.83
2017-11-24T12:04:20.606Z,4.00
2017-11-24T12:06:48.949Z,3.92
2017-11-24T12:09:16.562Z,3.40
2017-11-24T12:11:44.129Z,4.17
2017-11-24T12:14:12.501Z,3.17
2017-11-24T12:16:41.774Z,4.13
2017-11-24T12:19:09.346Z,4.73
2017-11-24T12:21:36.928Z,3.90
2017-11-24T12:24:05.297Z,4.00
2017-11-24T12:26:32.897Z,4.27
2017-11-24T12:29:00.463Z,4.20
2017-11-24T12:31:28.054Z,4.13
2017-11-24T12:33:55.621Z,4.45
2017-11-24T12:36:23.209Z,6.27
2017-11-24T12:38:50.875Z,3.65
2017-11-24T12:41:19.448Z,3.90
2017-11-24T12:43:47.011Z,4.05
2017-11-24T12:46:14.572Z,5.07
2017-11-24T12:48:43.909Z,4.25
2017-11-24T12:51:11.472Z,4.23
2017-11-24T12:53:39.380Z,4.80
2017-11-24T12:56:06.949Z,4.40
2017-11-24T12:58:34.537Z,4.03
2017-11-24T13:01:02.913Z,5.20
2017-11-24T13:03:31.264Z,4.57
2017-11-24T13:05:58.824Z,3.50
2017-11-24T13:08:26.418Z,4.77
2017-11-24T13:10:54.749Z,4.72
2017-11-24T13:13:22.317Z,5.10
2017-11-24T13:15:49.905Z,5.82
2017-11-24T13:18:17.465Z,4.90
2017-11-24T13:20:45.034Z,5.00
2017-11-24T13:23:12.629Z,5.17
2017-11-24T13:25:41.122Z,4.17
2017-11-24T13:28:08.714Z,4.77
2017-11-24T13:30:36.280Z,3.27
2017-11-24T13:33:03.885Z,4.00
2017-11-24T13:35:31.457Z,2.63
2017-11-24T13:37:59.049Z,1.97
2017-11-24T13:40:26.610Z,2.10
2017-11-24T13:42:54.213Z,1.58
2017-11-24T13:45:22.549Z,1.97
2017-11-24T13:47:50.164Z,1.48
2017-11-24T13:50:18.513Z,1.60
2017-11-24T13:52:46.077Z,1.90
2017-11-24T13:55:13.660Z,1.58
2017-11-24T13:57:42.025Z,1.92
2017-11-24T14:00:10.388Z,1.67
2017-11-24T14:02:38.749Z,1.50
2017-11-24T14:05:06.346Z,1.00
2017-11-24T14:07:34.729Z,1.43
2017-11-24T14:10:03.099Z,1.20
2017-11-24T14:12:30.737Z,1.27
2017-11-24T14:14:58.333Z,1.37
2017-11-24T14:17:26.658Z,1.00
2017-11-24T14:19:54.250Z,0.80
2017-11-24T14:22:21.809Z,0.80
2017-11-24T14:24:49.397Z,0.47
2017-11-24T14:27:17.734Z,0.80
2017-11-24T14:29:45.349Z,0.77
2017-11-24T14:32:12.928Z,1.77
2017-11-24T14:34:40.994Z,0.90
2017-11-24T14:37:08.577Z,0.80
2017-11-24T14:39:36.140Z,0.70
2017-11-24T14:42:03.733Z,0.90
2017-11-24T14:44:32.067Z,1.40
2017-11-24T14:46:59.661Z,1.20
2017-11-24T14:49:27.227Z,1.30
2017-11-24T14:51:54.822Z,1.05
2017-11-24T14:54:22.381Z,1.73
2017-11-24T14:56:50.730Z,1.77
2017-11-24T14:59:18.293Z,1.70
2017-11-24T15:01:46.065Z,1.95
2017-11-24T15:04:13.625Z,1.97
2017-11-24T15:06:41.898Z,2.10
2017-11-24T15:09:09.557Z,1.80
2017-11-24T15:11:37.116Z,1.60
2017-11-24T15:14:04.704Z,1.80
2017-11-24T15:16:33.037Z,3.87
2017-11-24T15:19:00.625Z,8.25
2017-11-24T15:21:28.182Z,4.20
2017-11-24T15:23:55.861Z,3.13
2017-11-24T15:26:24.185Z,2.00
2017-11-24T15:28:51.760Z,2.95
2017-11-24T15:31:19.405Z,2.33
2017-11-24T15:33:46.965Z,3.00
2017-11-24T15:36:14.556Z,3.13
2017-11-24T15:38:43.037Z,6.20
2017-11-24T15:41:10.660Z,7.93
2017-11-24T15:43:38.229Z,8.03
2017-11-24T15:46:05.798Z,8.60
2017-11-24T15:48:33.493Z,6.70
2017-11-24T15:51:01.069Z,7.70
2017-11-24T15:53:29.445Z,7.00
2017-11-24T15:55:57.779Z,7.87
2017-11-24T15:58:25.435Z,6.60
2017-11-24T16:00:53.001Z,6.83
2017-11-24T16:03:20.557Z,5.80
2017-11-24T16:05:48.171Z,5.93
2017-11-24T16:08:16.508Z,6.90
2017-11-24T16:10:45.870Z,6.45
2017-11-24T16:13:13.438Z,6.80
2017-11-24T16:15:41.033Z,6.50
2017-11-24T16:18:08.625Z,6.03
2017-11-24T16:20:36.217Z,7.27
2017-11-24T16:23:03.786Z,7.53
2017-11-24T16:25:31.378Z,7.00
2017-11-24T16:27:58.956Z,7.80
2017-11-24T16:30:26.541Z,8.57
2017-11-24T16:32:54.877Z,7.90
2017-11-24T16:35:22.502Z,7.80
2017-11-24T16:37:50.066Z,7.22
2017-11-24T16:40:17.629Z,5.73
2017-11-24T16:42:45.861Z,6.17
2017-11-24T16:45:13.434Z,8.73
2017-11-24T16:47:41.771Z,10.73
2017-11-24T16:50:09.374Z,8.17
2017-11-24T16:52:37.714Z,11.70
2017-11-24T16:55:05.305Z,7.87
2017-11-24T16:57:32.872Z,7.30
2017-11-24T17:00:00.466Z,7.80
2017-11-24T17:02:28.034Z,8.23
2017-11-24T17:04:55.861Z,6.75
2017-11-24T17:07:23.421Z,6.80
2017-11-24T17:09:51.752Z,7.67
2017-11-24T17:12:19.346Z,9.50
2017-11-24T17:14:46.917Z,10.80
2017-11-24T17:17:14.588Z,8.77
2017-11-24T17:19:43.853Z,9.30
2017-11-24T17:22:11.444Z,15.33
2017-11-24T17:24:39.004Z,12.60
2017-11-24T17:27:06.882Z,8.70
2017-11-24T17:29:35.211Z,9.23
2017-11-24T17:32:02.774Z,9.03
2017-11-24T17:34:30.371Z,11.00
2017-11-24T17:36:57.945Z,18.50
2017-11-24T17:39:26.310Z,43.97
2017-11-24T17:41:53.885Z,21.73
2017-11-24T17:44:22.250Z,19.50
2017-11-24T17:46:49.821Z,13.87
2017-11-24T17:49:18.192Z,14.40
2017-11-24T17:51:46.648Z,9.50
2017-11-24T17:54:14.347Z,8.10
2017-11-24T17:56:43.597Z,9.80
2017-11-24T17:59:11.293Z,10.53
2017-11-24T18:01:39.631Z,11.40
2017-11-24T18:04:07.546Z,10.40
2017-11-24T18:06:35.114Z,10.30
2017-11-24T18:09:03.765Z,9.75
2017-11-24T18:11:31.353Z,8.63
2017-11-24T18:13:59.012Z,8.27
2017-11-24T18:16:26.633Z,7.60
2017-11-24T18:18:54.339Z,9.00
2017-11-24T18:21:21.910Z,9.03
2017-11-24T18:23:50.265Z,10.77
2017-11-24T18:26:17.829Z,12.73
2017-11-24T18:28:46.622Z,11.60
2017-11-24T18:31:14.184Z,14.43
2017-11-24T18:33:41.776Z,12.10
2017-11-24T18:36:09.349Z,10.10
2017-11-24T18:38:36.969Z,10.57
2017-11-24T18:41:04.539Z,9.73
2017-11-24T18:43:32.873Z,10.20
2017-11-24T18:46:00.465Z,10.43
2017-11-24T18:48:28.070Z,10.93
2017-11-24T18:50:55.641Z,11.88
2017-11-24T18:53:23.207Z,9.60
2017-11-24T18:55:50.808Z,10.75
2017-11-24T18:58:18.660Z,11.93
2017-11-24T19:00:46.265Z,10.17
2017-11-24T19:03:14.601Z,11.47
2017-11-24T19:05:43.145Z,15.00
2017-11-24T19:08:10.709Z,14.70
2017-11-24T19:10:38.284Z,16.70
2017-11-24T19:13:05.885Z,22.98
2017-11-24T19:15:33.453Z,15.73
2017-11-24T19:18:01.082Z,15.90
2017-11-24T19:20:28.664Z,19.70
2017-11-24T19:22:56.257Z,17.92
2017-11-24T19:25:24.611Z,18.10
2017-11-24T19:27:52.273Z,19.58
2017-11-24T19:30:19.852Z,18.50
2017-11-24T19:32:47.474Z,21.10
2017-11-24T19:35:15.040Z,19.10
2017-11-24T19:37:45.034Z,18.75
2017-11-24T19:40:12.602Z,19.20
2017-11-24T19:42:40.173Z,15.43
2017-11-24T19:45:07.817Z,18.03
2017-11-24T19:47:35.390Z,18.30
2017-11-24T19:50:03.237Z,18.63
2017-11-24T19:52:30.814Z,20.27
2017-11-24T19:54:58.389Z,22.63
2017-11-24T19:57:26.777Z,24.00
2017-11-24T19:59:54.369Z,24.50
2017-11-24T20:02:22.828Z,21.17
2017-11-24T20:04:50.446Z,22.52
2017-11-24T20:07:18.013Z,22.50
2017-11-24T20:09:46.064Z,21.50
2017-11-24T20:12:13.674Z,20.70
2017-11-24T20:14:41.281Z,20.23
2017-11-24T20:17:08.845Z,20.30
2017-11-24T20:19:36.439Z,19.70
2017-11-24T20:22:04.014Z,18.07
2017-11-24T20:24:31.604Z,19.20
2017-11-24T20:26:59.984Z,19.83
2017-11-24T20:29:28.753Z,20.50
2017-11-24T20:31:57.092Z,19.47
2017-11-24T20:34:24.665Z,21.37
2017-11-24T20:36:52.312Z,23.90
2017-11-24T20:39:19.937Z,24.27
2017-11-24T20:41:48.298Z,30.53
2017-11-24T20:44:15.965Z,26.30
2017-11-24T20:46:45.781Z,31.48
2017-11-24T20:49:13.349Z,25.40
2017-11-24T20:51:41.705Z,27.00
2017-11-24T20:54:09.784Z,27.40
2017-11-24T20:56:37.453Z,29.17
2017-11-24T20:59:05.030Z,26.58
2017-11-24T21:01:33.471Z,34.90
2017-11-24T21:04:01.040Z,30.48
2017-11-24T21:06:28.609Z,25.27
2017-11-24T21:08:56.288Z,33.90
2017-11-24T21:11:24.625Z,29.70
2017-11-24T21:13:52.213Z,27.40
2017-11-24T21:16:20.249Z,22.43
2017-11-24T21:18:47.825Z,24.27
2017-11-24T21:21:15.417Z,23.60
2017-11-24T21:23:44.754Z,22.90
2017-11-24T21:26:12.344Z,23.33
2017-11-24T21:28:39.912Z,22.00
2017-11-24T21:31:07.521Z,19.73
2017-11-24T21:33:36.157Z,25.63
2017-11-24T21:36:03.727Z,22.43
2017-11-24T21:38:31.322Z,24.03
2017-11-24T21:40:59.708Z,22.30
2017-11-24T21:43:28.064Z,22.80
2017-11-24T21:45:55.636Z,22.20
2017-11-24T21:48:23.989Z,23.60
2017-11-24T21:50:51.561Z,24.02
2017-11-24T21:53:19.153Z,23.87
2017-11-24T21:55:46.720Z,27.40
2017-11-24T21:58:14.360Z,32.20
2017-11-24T22:00:43.614Z,30.40
2017-11-24T22:03:11.206Z,28.00
2017-11-24T22:05:38.777Z,28.00
2017-11-24T22:08:07.199Z,33.07
2017-11-24T22:10:34.812Z,29.67
2017-11-24T22:13:03.157Z,24.75
2017-11-24T22:15:30.758Z,26.93
2017-11-24T22:17:59.097Z,26.30
2017-11-24T22:20:26.699Z,25.70
2017-11-24T22:22:55.038Z,28.53
2017-11-24T22:25:22.913Z,30.60
2017-11-24T22:27:50.477Z,25.07
2017-11-24T22:30:18.065Z,27.30
2017-11-24T22:32:46.555Z,23.60
2017-11-24T22:35:14.908Z,22.03
2017-11-24T22:37:44.688Z,23.10
2017-11-24T22:40:12.290Z,22.50
2017-11-24T22:42:39.886Z,24.23
2017-11-24T22:45:07.472Z,23.27
2017-11-24T22:47:35.065Z,21.63
2017-11-24T22:50:02.634Z,22.52
2017-11-24T22:52:30.229Z,21.30
2017-11-24T22:54:57.802Z,20.48
2017-11-24T22:57:25.388Z,22.37
2017-11-24T22:59:52.958Z,24.33
2017-11-24T23:02:20.641Z,25.90
2017-11-24T23:04:48.216Z,20.37
2017-11-24T23:07:16.577Z,31.83
2017-11-24T23:09:46.675Z,29.27
2017-11-24T23:12:14.295Z,35.40
2017-11-24T23:14:41.918Z,24.70
2017-11-24T23:17:09.492Z,33.20
2017-11-24T23:19:37.853Z,28.87
2017-11-24T23:22:05.425Z,31.57
2017-11-24T23:24:33.793Z,35.43
2017-11-24T23:27:01.361Z,36.47
2017-11-24T23:29:28.957Z,30.67
2017-11-24T23:31:56.529Z,23.07
2017-11-24T23:34:24.126Z,24.00
2017-11-24T23:36:51.693Z,24.00
2017-11-24T23:39:19.374Z,21.13
2017-11-24T23:41:47.714Z,28.70
2017-11-24T23:44:15.401Z,18.57
2017-11-24T23:46:44.681Z,19.70
2017-11-24T23:49:12.245Z,18.73
2017-11-24T23:51:39.837Z,18.03
2017-11-24T23:54:08.176Z,22.03
2017-11-24T23:56:35.761Z,21.87
2017-11-24T23:59:03.328Z,21.87
